Time;durP1;ratioP1;P1;durP2;ratioP2;P2;SDS_P1;SDS_P2;PMS_P1;PMS_P2;Temp;Humidity;BMP_temperature;BMP_pressure;BME280_temperature;BME280_humidity;BME280_pressure;Samples;Min_cycle;Max_cycle;Signal;HPM_P1;HPM_P2
2023/09/16 00:01:22;;;;;;;6.17;3.73;;;;;;;21.52;100.00;99699.91;5110690;28;20202;-63
2023/09/16 00:03:49;;;;;;;3.37;3.07;;;;;;;21.42;100.00;99689.28;5108101;28;20248;-63
2023/09/16 00:06:17;;;;;;;3.80;3.60;;;;;;;21.39;100.00;99679.03;5111506;28;20621;-63
2023/09/16 00:08:44;;;;;;;3.47;3.07;;;;;;;21.54;100.00;99704.06;5111012;28;20617;-63
2023/09/16 00:11:11;;;;;;;6.43;3.80;;;;;;;21.59;100.00;99701.94;5108350;28;20197;-63
2023/09/16 00:13:38;;;;;;;3.33;3.10;;;;;;;21.54;100.00;99683.19;5110337;28;20203;-63
2023/09/16 00:16:06;;;;;;;3.40;3.20;;;;;;;21.70;100.00;99703.81;5111081;28;20247;-63
2023/09/16 00:18:33;;;;;;;3.80;3.50;;;;;;;21.74;100.00;99700.03;5111059;28;20298;-63
2023/09/16 00:21:00;;;;;;;3.53;3.33;;;;;;;21.74;100.00;99693.06;5111380;28;20198;-63
2023/09/16 00:23:28;;;;;;;3.80;3.23;;;;;;;21.82;100.00;99702.94;5107849;28;20272;-63
2023/09/16 00:25:55;;;;;;;3.80;3.60;;;;;;;21.82;100.00;99700.31;5110703;28;20225;-63
2023/09/16 00:28:21;;;;;;;3.80;3.50;;;;;;;21.83;100.00;99702.84;5110796;28;20195;-63
2023/09/16 00:30:49;;;;;;;6.83;3.53;;;;;;;21.86;100.00;99709.59;5110534;28;20202;-63
2023/09/16 00:33:16;;;;;;;4.37;4.07;;;;;;;21.76;100.00;99692.94;5110930;28;20229;-63
2023/09/16 00:35:42;;;;;;;4.43;4.07;;;;;;;21.89;100.00;99710.25;5110236;28;20195;-63
2023/09/16 00:38:09;;;;;;;4.47;4.07;;;;;;;21.80;100.00;99692.63;5110755;28;20300;-63
2023/09/16 00:40:38;;;;;;;4.03;3.77;;;;;;;21.92;100.00;99707.41;5113763;28;20210;-63
2023/09/16 00:43:05;;;;;;;3.90;3.70;;;;;;;21.87;100.00;99700.84;5114863;28;20198;-63
2023/09/16 00:45:33;;;;;;;4.03;3.73;;;;;;;21.93;100.00;99711.72;5114543;28;20264;-63
2023/09/16 00:48:00;;;;;;;3.13;2.93;;;;;;;21.93;100.00;99706.50;5115098;28;20203;-63
2023/09/16 00:50:27;;;;;;;4.00;3.70;;;;;;;21.94;100.00;99710.75;5114868;28;20190;-63
2023/09/16 00:52:56;;;;;;;4.47;4.10;;;;;;;21.93;100.00;99701.25;5114405;28;20195;-63
2023/09/16 00:55:26;;;;;;;4.23;3.93;;;;;;;21.91;100.00;99692.69;5114696;28;20209;-63
2023/09/16 00:57:56;;;;;;;4.47;3.87;;;;;;;21.95;100.00;99703.75;5114391;28;20210;-62
2023/09/16 01:00:26;;;;;;;3.90;3.60;;;;;;;21.91;100.00;99690.09;5114445;28;20742;-63
2023/09/16 01:02:53;;;;;;;5.87;3.43;;;;;;;22.01;100.00;99707.69;5114214;28;20618;-63
2023/09/16 01:05:20;;;;;;;4.33;3.77;;;;;;;22.00;100.00;99716.47;5113862;28;20305;-63
2023/09/16 01:07:47;;;;;;;3.53;3.33;;;;;;;21.98;100.00;99720.03;5114210;28;20674;-63
2023/09/16 01:10:15;;;;;;;4.17;3.77;;;;;;;21.95;100.00;99720.25;5114610;28;20691;-63
2023/09/16 01:12:42;;;;;;;4.13;3.83;;;;;;;21.93;100.00;99726.53;5114261;28;20210;-63
2023/09/16 01:15:13;;;;;;;3.80;3.37;;;;;;;21.89;100.00;99732.91;5114106;28;20248;-63
2023/09/16 01:17:47;;;;;;;4.43;4.00;;;;;;;21.80;100.00;99726.53;5114508;28;20666;-63
2023/09/16 01:20:16;;;;;;;3.37;3.17;;;;;;;21.77;100.00;99731.97;5113792;28;20197;-63
2023/09/16 01:22:45;;;;;;;4.13;3.80;;;;;;;21.82;100.00;99752.53;5114123;28;20195;-62
2023/09/16 01:25:14;;;;;;;6.07;4.30;;;;;;;21.80;100.00;99755.25;5113814;28;20567;-62
2023/09/16 01:27:41;;;;;;;3.53;3.23;;;;;;;21.80;100.00;99757.03;5114123;28;20286;-63
2023/09/16 01:30:10;;;;;;;3.83;3.60;;;;;;;21.76;100.00;99753.78;5113890;28;20206;-63
2023/09/16 01:32:41;;;;;;;4.30;3.50;;;;;;;21.73;100.00;99753.16;5113508;28;20202;-63
2023/09/16 01:35:11;;;;;;;3.43;3.23;;;;;;;21.75;100.00;99754.72;5113409;28;20255;-62
2023/09/16 01:37:40;;;;;;;6.07;4.17;;;;;;;21.71;100.00;99763.72;5113857;28;20226;-62
2023/09/16 01:40:10;;;;;;;6.10;4.17;;;;;;;21.73;100.00;99772.28;5113988;28;20294;-63
2023/09/16 01:42:38;;;;;;;4.03;3.47;;;;;;;21.64;100.00;99765.09;5113733;28;20191;-62
2023/09/16 01:45:07;;;;;;;5.50;5.10;;;;;;;21.61;100.00;99767.94;5113632;28;20218;-64
2023/09/16 01:47:34;;;;;;;3.50;3.30;;;;;;;21.51;100.00;99746.03;5113159;28;20278;-62
2023/09/16 01:50:00;;;;;;;4.80;4.50;;;;;;;21.57;100.00;99763.84;5113169;28;20623;-62
2023/09/16 01:52:27;;;;;;;6.27;3.70;;;;;;;21.52;100.00;99768.53;5112563;28;20206;-62
2023/09/16 01:54:54;;;;;;;4.77;4.47;;;;;;;21.46;100.00;99758.53;5113579;28;20314;-62
2023/09/16 01:57:21;;;;;;;7.13;4.83;;;;;;;21.39;100.00;99762.50;5113530;28;20195;-62
2023/09/16 01:59:49;;;;;;;3.87;3.67;;;;;;;21.37;100.00;99770.44;5113169;28;20199;-63
2023/09/16 02:02:16;;;;;;;4.17;3.87;;;;;;;21.36;100.00;99767.91;5113038;28;20194;-62
2023/09/16 02:04:44;;;;;;;4.30;4.00;;;;;;;21.31;100.00;99764.81;5112751;28;20205;-62
2023/09/16 02:07:11;;;;;;;5.77;4.23;;;;;;;21.30;100.00;99760.53;5113350;27;20222;-62
2023/09/16 02:09:38;;;;;;;4.87;4.57;;;;;;;21.19;100.00;99747.41;5113533;28;20198;-62
2023/09/16 02:12:06;;;;;;;4.63;4.33;;;;;;;21.29;100.00;99749.25;5112750;28;20209;-63
2023/09/16 02:14:37;;;;;;;4.27;3.83;;;;;;;21.34;100.00;99751.56;5112603;28;20202;-62
2023/09/16 02:17:07;;;;;;;10.07;5.17;;;;;;;21.39;100.00;99747.69;5112770;28;20298;-62
2023/09/16 02:19:34;;;;;;;4.87;4.47;;;;;;;21.40;100.00;99746.75;5112879;28;20237;-62
2023/09/16 02:22:00;;;;;;;4.20;3.80;;;;;;;21.34;100.00;99733.31;5112697;28;20583;-62
2023/09/16 02:24:27;;;;;;;4.83;4.53;;;;;;;21.40;100.00;99744.16;5112877;28;20221;-62
2023/09/16 02:26:54;;;;;;;4.40;4.10;;;;;;;21.45;100.00;99741.22;5112407;28;20369;-63
2023/09/16 02:29:21;;;;;;;6.47;4.57;;;;;;;21.41;100.00;99739.75;5112630;28;20202;-62
2023/09/16 02:31:47;;;;;;;4.70;4.30;;;;;;;21.48;100.00;99756.66;5112704;28;20199;-63
2023/09/16 02:34:16;;;;;;;9.57;4.93;;;;;;;21.50;100.00;99744.34;5112571;28;20209;-63
2023/09/16 02:36:42;;;;;;;4.57;4.13;;;;;;;21.51;100.00;99751.25;5112890;28;20726;-62
2023/09/16 02:39:09;;;;;;;5.13;4.83;;;;;;;21.55;100.00;99746.66;5112828;28;20229;-62
2023/09/16 02:41:36;;;;;;;4.47;4.23;;;;;;;21.28;100.00;99700.66;5112078;28;20199;-62
2023/09/16 02:44:03;;;;;;;5.07;4.63;;;;;;;21.58;100.00;99751.66;5112226;28;20202;-63
2023/09/16 02:46:30;;;;;;;4.87;4.67;;;;;;;21.60;100.00;99742.75;5111772;28;20222;-61
2023/09/16 02:48:57;;;;;;;4.43;4.13;;;;;;;21.60;100.00;99742.75;5112482;28;20197;-62
2023/09/16 02:51:25;;;;;;;4.47;4.17;;;;;;;21.63;100.00;99745.16;5111968;28;20195;-61
2023/09/16 02:53:54;;;;;;;6.73;4.47;;;;;;;21.64;100.00;99741.63;5111961;27;20195;-62
2023/09/16 02:56:21;;;;;;;8.33;4.23;;;;;;;21.66;100.00;99738.88;5112113;28;20286;-62
2023/09/16 02:58:48;;;;;;;4.73;4.20;;;;;;;21.67;100.00;99740.56;5111877;28;20255;-62
2023/09/16 03:01:15;;;;;;;5.30;4.90;;;;;;;21.67;100.00;99740.56;5111649;28;20675;-62
2023/09/16 03:03:43;;;;;;;7.33;4.77;;;;;;;21.68;100.00;99737.81;5111382;28;20198;-62
2023/09/16 03:06:10;;;;;;;5.00;4.60;;;;;;;21.63;100.00;99723.44;5111993;28;20776;-62
2023/09/16 03:08:38;;;;;;;5.70;5.20;;;;;;;21.74;100.00;99733.97;5112029;27;20198;-62
2023/09/16 03:11:06;;;;;;;3.87;3.67;;;;;;;21.74;100.00;99734.81;5111871;28;20670;-62
2023/09/16 03:13:33;;;;;;;7.77;5.47;;;;;;;21.76;100.00;99737.28;5111590;28;20187;-61
2023/09/16 03:16:17;;;;;;;5.97;5.47;;;;;;;21.64;100.00;99709.47;5111666;28;20194;-62
2023/09/16 03:18:46;;;;;;;5.03;4.63;;;;;;;21.71;100.00;99721.94;5111733;28;20202;-63
2023/09/16 03:21:13;;;;;;;5.60;4.80;;;;;;;21.70;100.00;99724.69;5111739;28;20294;-62
2023/09/16 03:23:42;;;;;;;5.13;4.60;;;;;;;21.70;100.00;99725.53;5111715;28;20252;-62
2023/09/16 03:26:10;;;;;;;5.23;4.87;;;;;;;21.72;100.00;99731.47;5111427;28;20211;-62
2023/09/16 03:28:40;;;;;;;5.17;4.67;;;;;;;21.74;100.00;99729.59;5111598;28;20297;-62
2023/09/16 03:31:07;;;;;;;5.43;5.03;;;;;;;21.74;100.00;99721.75;5111359;28;20250;-62
2023/09/16 03:33:34;;;;;;;11.43;6.53;;;;;;;21.67;100.00;99732.72;5111249;28;20300;-62
2023/09/16 03:36:01;;;;;;;5.37;4.90;;;;;;;21.68;100.00;99730.00;5111005;28;20186;-62
2023/09/16 03:38:30;;;;;;;6.53;5.23;;;;;;;21.68;100.00;99739.63;5111301;28;20195;-62
2023/09/16 03:40:58;;;;;;;6.90;4.57;;;;;;;21.67;100.00;99736.19;5111280;28;20198;-62
2023/09/16 03:43:25;;;;;;;5.23;4.67;;;;;;;21.69;100.00;99731.69;5110875;28;20207;-63
2023/09/16 03:45:51;;;;;;;7.07;4.60;;;;;;;21.70;100.00;99729.91;5110994;28;20229;-63
2023/09/16 03:48:18;;;;;;;6.93;4.27;;;;;;;21.71;100.00;99727.16;5110570;28;20206;-62
2023/09/16 03:50:46;;;;;;;6.07;5.47;;;;;;;21.71;100.00;99732.38;5111172;28;20222;-62
2023/09/16 03:53:14;;;;;;;5.20;4.80;;;;;;;21.71;100.00;99727.16;5111416;28;20202;-63
2023/09/16 03:55:40;;;;;;;5.73;5.27;;;;;;;21.73;100.00;99729.69;5111240;28;20584;-62
2023/09/16 03:58:09;;;;;;;4.77;4.37;;;;;;;21.74;100.00;99734.81;5110679;28;20203;-63
2023/09/16 04:00:35;;;;;;;5.33;4.93;;;;;;;21.76;100.00;99743.34;5110998;28;20199;-62
2023/09/16 04:03:02;;;;;;;8.97;5.30;;;;;;;21.78;100.00;99745.84;5110844;28;20190;-62
2023/09/16 04:05:29;;;;;;;5.77;5.20;;;;;;;21.78;100.00;99744.06;5110339;28;20285;-62
2023/09/16 04:07:56;;;;;;;5.17;4.77;;;;;;;21.79;100.00;99739.69;5110750;28;20210;-62
2023/09/16 04:10:22;;;;;;;5.67;5.17;;;;;;;21.77;100.00;99749.41;5110617;28;20199;-63
2023/09/16 04:12:49;;;;;;;8.37;4.63;;;;;;;21.74;100.00;99758.31;5110259;28;20260;-62
2023/09/16 04:15:18;;;;;;;7.70;6.43;;;;;;;21.76;100.00;99756.41;5109700;28;20190;-62
2023/09/16 04:17:44;;;;;;;14.40;8.20;;;;;;;21.74;100.00;99763.53;5110321;28;20700;-63
2023/09/16 04:20:11;;;;;;;7.73;5.63;;;;;;;21.62;100.00;99764.34;5110361;28;20206;-62
2023/09/16 04:22:38;;;;;;;6.70;5.00;;;;;;;21.58;100.00;99768.13;5110974;28;20582;-63
2023/09/16 04:25:06;;;;;;;4.77;4.47;;;;;;;21.46;100.00;99758.53;5110887;28;20213;-63
2023/09/16 04:27:33;;;;;;;9.57;4.80;;;;;;;21.40;100.00;99774.59;5110684;28;20222;-63
2023/09/16 04:29:59;;;;;;;4.97;4.67;;;;;;;21.33;100.00;99774.19;5111034;28;20632;-63
2023/09/16 04:32:27;;;;;;;8.03;6.33;;;;;;;21.29;100.00;99777.13;5109778;28;20201;-62
2023/09/16 04:34:58;;;;;;;6.03;5.63;;;;;;;21.29;100.00;99767.50;5109532;28;20201;-62
2023/09/16 04:37:25;;;;;;;6.53;5.93;;;;;;;21.29;100.00;99762.28;5109832;28;20725;-63
2023/09/16 04:39:52;;;;;;;5.47;5.07;;;;;;;21.28;100.00;99759.81;5110654;28;20745;-62
2023/09/16 04:42:18;;;;;;;5.87;5.57;;;;;;;21.26;100.00;99762.50;5110613;28;20202;-62
2023/09/16 04:44:48;;;;;;;6.00;5.33;;;;;;;21.26;100.00;99759.09;5110265;28;20685;-63
2023/09/16 04:47:15;;;;;;;6.97;5.33;;;;;;;21.28;100.00;99771.06;5110370;28;20286;-62
2023/09/16 04:49:43;;;;;;;5.83;5.33;;;;;;;21.25;100.00;99771.28;5110839;28;20631;-63
2023/09/16 04:52:10;;;;;;;7.60;5.60;;;;;;;21.30;100.00;99768.34;5110473;28;20194;-62
2023/09/16 04:54:37;;;;;;;6.70;5.47;;;;;;;21.34;100.00;99769.81;5110295;28;20199;-63
2023/09/16 04:57:05;;;;;;;6.27;5.73;;;;;;;21.32;100.00;99766.50;5110756;28;20194;-62
2023/09/16 04:59:33;;;;;;;5.43;5.07;;;;;;;21.33;100.00;99762.91;5110261;28;20195;-63
2023/09/16 05:02:00;;;;;;;7.00;4.87;;;;;;;21.34;100.00;99773.25;5110676;28;20202;-63
2023/09/16 05:04:26;;;;;;;5.93;5.43;;;;;;;21.37;100.00;99782.66;5108796;28;20206;-62
2023/09/16 05:06:55;;;;;;;6.17;5.67;;;;;;;21.41;100.00;99778.91;5109291;28;21014;-63
2023/09/16 05:09:21;;;;;;;9.13;7.03;;;;;;;21.45;100.00;99783.78;5109473;28;20203;-63
2023/09/16 05:11:48;;;;;;;6.60;5.33;;;;;;;21.49;100.00;99781.00;5106314;28;20625;-62
2023/09/16 05:14:15;;;;;;;6.37;5.77;;;;;;;21.50;100.00;99786.09;5109257;28;20692;-62
2023/09/16 05:16:42;;;;;;;6.43;6.00;;;;;;;21.49;100.00;99789.63;5109609;28;20296;-63
2023/09/16 05:19:09;;;;;;;8.50;5.73;;;;;;;21.50;100.00;99793.91;5108471;28;20235;-63
2023/09/16 05:21:36;;;;;;;6.83;5.93;;;;;;;21.50;100.00;99801.72;5109673;28;20195;-63
2023/09/16 05:24:04;;;;;;;5.20;4.83;;;;;;;21.52;100.00;99802.44;5109699;28;20667;-63
2023/09/16 05:26:31;;;;;;;7.93;6.30;;;;;;;21.50;100.00;99806.94;5110684;28;20218;-63
2023/09/16 05:28:58;;;;;;;8.00;6.07;;;;;;;21.44;100.00;99807.38;5112468;28;20207;-63
2023/09/16 05:31:25;;;;;;;5.60;5.17;;;;;;;21.40;100.00;99811.97;5111028;28;20210;-63
2023/09/16 05:33:52;;;;;;;6.03;5.50;;;;;;;21.45;100.00;99819.50;5110999;28;20203;-62
2023/09/16 05:36:20;;;;;;;6.83;6.27;;;;;;;21.49;100.00;99815.72;5112998;28;20210;-62
2023/09/16 05:38:47;;;;;;;5.83;5.33;;;;;;;21.57;100.00;99825.63;5112542;28;20726;-61
2023/09/16 05:41:15;;;;;;;5.40;4.90;;;;;;;21.60;100.00;99825.41;5108737;28;20214;-62
2023/09/16 05:43:41;;;;;;;7.20;6.27;;;;;;;21.63;100.00;99833.88;5111293;28;20584;-62
2023/09/16 05:46:08;;;;;;;8.50;5.37;;;;;;;21.68;100.00;99830.97;5111178;27;20720;-62
2023/09/16 05:48:35;;;;;;;6.30;5.70;;;;;;;21.71;100.00;99834.16;5111577;28;20256;-62
2023/09/16 05:51:02;;;;;;;6.57;6.03;;;;;;;21.73;100.00;99829.69;5112090;28;20236;-62
2023/09/16 05:53:31;;;;;;;5.17;4.70;;;;;;;21.78;100.00;99840.63;5110597;28;20255;-62
2023/09/16 05:55:58;;;;;;;6.20;5.60;;;;;;;21.82;100.00;99844.72;5108729;28;20256;-63
2023/09/16 05:58:26;;;;;;;5.80;5.27;;;;;;;21.86;100.00;99845.34;5111372;28;20199;-62
2023/09/16 06:00:56;;;;;;;6.60;5.93;;;;;;;21.84;100.00;99842.81;5111335;27;20203;-62
2023/09/16 06:03:23;;;;;;;5.63;5.13;;;;;;;21.86;100.00;99856.63;5111017;28;20739;-62
2023/09/16 06:05:50;;;;;;;5.97;5.37;;;;;;;21.86;100.00;99856.63;5111941;28;20536;-63
2023/09/16 06:08:17;;;;;;;8.73;5.63;;;;;;;21.84;100.00;99852.44;5110645;28;20697;-62
2023/09/16 06:10:44;;;;;;;8.93;6.03;;;;;;;21.79;100.00;99847.53;5112287;28;20666;-62
2023/09/16 06:13:10;;;;;;;5.90;5.33;;;;;;;21.85;100.00;99864.53;5112476;28;20298;-62
2023/09/16 06:15:38;;;;;;;6.57;5.73;;;;;;;21.87;100.00;99870.50;5110215;28;20210;-62
2023/09/16 06:18:06;;;;;;;9.47;5.97;;;;;;;21.88;100.00;99864.31;5112306;28;20203;-62
2023/09/16 06:20:33;;;;;;;5.57;5.27;;;;;;;21.86;100.00;99867.06;5112284;28;20195;-62
2023/09/16 06:23:03;;;;;;;5.70;5.30;;;;;;;21.86;100.00;99872.28;5111080;28;20210;-62
2023/09/16 06:25:30;;;;;;;8.73;5.20;;;;;;;21.88;100.00;99875.59;5110547;28;20202;-62
2023/09/16 06:27:58;;;;;;;6.03;5.53;;;;;;;21.90;100.00;99883.38;5112581;28;20221;-62
2023/09/16 06:30:25;;;;;;;6.30;5.83;;;;;;;21.88;100.00;99891.28;5112198;28;20196;-64
2023/09/16 06:32:53;;;;;;;6.60;6.07;;;;;;;21.89;100.00;99892.97;5111753;28;20199;-64
2023/09/16 06:35:20;;;;;;;6.17;5.70;;;;;;;21.92;100.00;99887.53;5112168;28;20285;-64
2023/09/16 06:37:49;;;;;;;5.87;5.53;;;;;;;21.92;100.00;99892.78;5110967;28;20195;-64
2023/09/16 06:40:16;;;;;;;6.40;5.73;;;;;;;21.95;100.00;99902.16;5111836;28;20199;-63
2023/09/16 06:42:43;;;;;;;7.60;6.57;;;;;;;21.96;100.00;99902.06;5112072;28;20578;-63
2023/09/16 06:45:10;;;;;;;5.70;5.20;;;;;;;21.96;100.00;99906.44;5111308;28;20222;-63
2023/09/16 06:47:37;;;;;;;5.87;5.33;;;;;;;21.96;100.00;99904.69;5111284;28;20233;-63
2023/09/16 06:50:08;;;;;;;6.70;6.13;;;;;;;21.97;100.00;99906.31;5108515;27;20213;-63
2023/09/16 06:52:35;;;;;;;9.63;7.63;;;;;;;21.98;100.00;99915.00;5109675;28;20741;-62
2023/09/16 06:55:02;;;;;;;7.93;7.13;;;;;;;21.97;100.00;99914.16;5107965;27;20253;-61
2023/09/16 06:57:28;;;;;;;10.80;6.37;;;;;;;21.93;100.00;99910.13;5108978;28;20248;-62
2023/09/16 06:59:55;;;;;;;7.30;6.70;;;;;;;22.03;100.00;99917.31;5108755;28;20199;-63
2023/09/16 07:02:22;;;;;;;6.57;6.07;;;;;;;22.04;100.00;99926.78;5110918;28;20209;-62
2023/09/16 07:04:50;;;;;;;6.57;5.97;;;;;;;22.00;100.00;99933.19;5110469;28;20293;-62
2023/09/16 07:07:20;;;;;;;6.80;6.27;;;;;;;21.97;100.00;99936.84;5111012;27;20215;-63
2023/09/16 07:09:46;;;;;;;5.90;5.30;;;;;;;21.94;100.00;99932.66;5111168;28;20205;-62
2023/09/16 07:12:13;;;;;;;5.90;5.53;;;;;;;21.90;100.00;99939.03;5111395;27;20205;-62
2023/09/16 07:14:40;;;;;;;6.57;6.07;;;;;;;21.89;100.00;99934.75;5110783;28;20647;-63
2023/09/16 07:17:07;;;;;;;5.87;5.20;;;;;;;21.81;100.00;99930.97;5110653;28;20527;-62
2023/09/16 07:19:34;;;;;;;5.23;4.83;;;;;;;21.82;100.00;99936.06;5108125;28;20682;-63
2023/09/16 07:22:01;;;;;;;7.27;6.53;;;;;;;21.83;100.00;99940.34;5107990;28;20199;-63
2023/09/16 07:24:30;;;;;;;5.40;5.00;;;;;;;21.87;100.00;99941.81;5110048;27;20615;-62
2023/09/16 07:26:56;;;;;;;9.53;6.33;;;;;;;21.87;100.00;99933.97;5108686;28;20321;-62
2023/09/16 07:29:23;;;;;;;6.77;6.27;;;;;;;21.92;100.00;99939.75;5108830;28;20194;-63
2023/09/16 07:31:50;;;;;;;6.17;5.67;;;;;;;21.85;100.00;99924.56;5110243;28;20674;-63
2023/09/16 07:34:19;;;;;;;6.73;5.57;;;;;;;22.00;100.00;99941.84;5110971;28;20642;-63
2023/09/16 07:36:46;;;;;;;6.07;5.57;;;;;;;21.91;100.00;99939.84;5110449;28;20213;-63
2023/09/16 07:39:13;;;;;;;6.90;6.20;;;;;;;21.87;100.00;99941.81;5109740;28;20206;-63
2023/09/16 07:41:42;;;;;;;6.00;5.50;;;;;;;21.80;100.00;99943.19;5108470;27;20729;-63
2023/09/16 07:44:08;;;;;;;7.80;6.13;;;;;;;21.77;100.00;99946.00;5107687;28;20826;-70
2023/09/16 07:46:35;;;;;;;7.05;6.55;;;;;;;21.76;100.00;99944.31;5109270;28;20449;-62
2023/09/16 07:49:02;;;;;;;6.43;5.83;;;;;;;21.86;100.00;99949.75;5111940;28;20197;-62
2023/09/16 07:51:29;;;;;;;6.03;5.53;;;;;;;21.82;100.00;99953.50;5112023;28;20199;-62
2023/09/16 07:53:56;;;;;;;6.30;5.70;;;;;;;21.81;100.00;99957.88;5112062;28;20560;-62
2023/09/16 07:56:22;;;;;;;6.37;5.87;;;;;;;21.83;100.00;99960.41;5111857;28;20206;-62
2023/09/16 07:58:51;;;;;;;5.83;5.30;;;;;;;21.81;100.00;99960.50;5111517;28;20640;-62
2023/09/16 08:01:18;;;;;;;7.80;6.07;;;;;;;21.83;100.00;99956.03;5111304;28;20198;-62
2023/09/16 08:03:45;;;;;;;7.83;5.73;;;;;;;21.87;100.00;99956.66;5111223;28;20200;-62
2023/09/16 08:06:13;;;;;;;6.37;5.70;;;;;;;21.88;100.00;99966.97;5110769;28;20206;-63
2023/09/16 08:08:39;;;;;;;5.43;5.03;;;;;;;21.94;100.00;99968.34;5111721;28;20640;-62
2023/09/16 08:11:06;;;;;;;6.43;5.83;;;;;;;21.97;100.00;99968.19;5111654;28;20247;-62
2023/09/16 08:13:33;;;;;;;5.67;4.87;;;;;;;22.00;100.00;99969.75;5111398;28;20195;-62
2023/09/16 08:16:02;;;;;;;9.07;5.67;;;;;;;22.03;100.00;99966.91;5112135;28;20681;-62
2023/09/16 08:18:29;;;;;;;8.87;5.47;;;;;;;22.05;100.00;99968.47;5111569;28;20206;-62
2023/09/16 08:20:56;;;;;;;5.73;5.33;;;;;;;22.09;100.00;99969.09;5111690;28;20205;-62
2023/09/16 08:23:22;;;;;;;6.67;6.07;;;;;;;22.13;100.00;99968.81;5111979;28;20203;-63
2023/09/16 08:25:49;;;;;;;8.23;6.03;;;;;;;22.19;100.00;99968.38;5111451;28;20198;-62
2023/09/16 08:28:16;;;;;;;11.73;5.10;;;;;;;22.25;100.00;99967.13;5111586;28;20279;-63
2023/09/16 08:30:43;;;;;;;8.07;6.00;;;;;;;22.29;100.00;99971.19;5111777;28;20210;-62
2023/09/16 08:33:12;;;;;;;6.10;5.30;;;;;;;22.32;100.00;99978.81;5111960;28;20578;-62
2023/09/16 08:35:38;;;;;;;6.00;5.50;;;;;;;22.40;100.00;99981.72;5108734;28;20199;-62
2023/09/16 08:38:07;;;;;;;7.07;6.43;;;;;;;22.37;100.00;99977.53;5111634;28;20195;-62
2023/09/16 08:40:34;;;;;;;5.80;5.43;;;;;;;22.42;100.00;99978.03;5111906;28;20628;-62
2023/09/16 08:43:19;;;;;;;5.30;4.87;;;;;;;22.45;100.00;99980.47;5104650;28;20204;-62
2023/09/16 08:45:55;;;;;;;7.47;6.80;;;;;;;22.48;100.00;99976.81;5110390;28;20240;-62
2023/09/16 08:48:26;;;;;;;7.33;6.57;;;;;;;22.44;100.00;99952.66;5111320;28;20217;-62
2023/09/16 08:50:54;;;;;;;6.70;6.03;;;;;;;22.54;100.00;99967.69;5111114;28;20199;-62
2023/09/16 08:53:22;;;;;;;8.63;7.83;;;;;;;22.55;100.00;99959.75;5111574;28;20682;-62
2023/09/16 08:55:52;;;;;;;6.97;6.37;;;;;;;22.62;100.00;99960.16;5111210;28;20685;-62
2023/09/16 08:58:20;;;;;;;8.07;6.17;;;;;;;22.62;100.00;99955.75;5111667;28;20658;-62
2023/09/16 09:00:47;;;;;;;6.33;5.90;;;;;;;22.71;100.00;99960.38;5112995;28;20217;-62
2023/09/16 09:03:13;;;;;;;5.17;4.87;;;;;;;22.70;100.00;99957.84;5115483;28;20202;-62
2023/09/16 09:05:44;;;;;;;8.77;5.80;;;;;;;22.78;100.00;99945.91;5115175;28;20217;-62
2023/09/16 09:08:12;;;;;;;5.67;5.27;;;;;;;22.87;100.00;99941.81;5108126;28;20214;-62
2023/09/16 09:10:40;;;;;;;6.43;5.23;;;;;;;22.93;100.00;99936.13;5115235;28;20210;-62
2023/09/16 09:13:11;;;;;;;5.27;4.90;;;;;;;22.91;100.00;99940.63;5114837;28;20237;-62
2023/09/16 09:15:39;;;;;;;7.70;5.47;;;;;;;22.91;100.00;99936.22;5115271;28;20199;-62
2023/09/16 09:18:08;;;;;;;5.70;5.20;;;;;;;22.99;100.00;99933.91;5114421;28;20202;-67
2023/09/16 09:20:35;;;;;;;5.83;5.43;;;;;;;23.01;100.00;99925.94;5114680;28;20746;-67
2023/09/16 09:23:03;;;;;;;7.57;6.80;;;;;;;23.08;100.00;99937.63;5113494;28;20259;-66
2023/09/16 09:25:31;;;;;;;7.77;5.53;;;;;;;23.05;100.00;99942.25;5106297;28;20248;-66
2023/09/16 09:27:58;;;;;;;6.90;5.87;;;;;;;23.04;100.00;99941.41;5112443;28;20226;-67
2023/09/16 09:30:27;;;;;;;6.27;5.77;;;;;;;23.08;100.00;99939.41;5111466;28;20289;-66
2023/09/16 09:32:55;;;;;;;6.27;5.67;;;;;;;23.01;100.00;99937.22;5113510;28;20198;-67
2023/09/16 09:35:22;;;;;;;6.60;6.03;;;;;;;23.01;100.00;99932.00;5113912;28;20284;-66
2023/09/16 09:37:50;;;;;;;8.07;6.90;;;;;;;23.07;100.00;99922.06;5114216;28;20187;-66
2023/09/16 09:40:19;;;;;;;6.80;6.13;;;;;;;22.96;100.00;99926.28;5113371;28;20678;-66
2023/09/16 09:42:48;;;;;;;5.40;4.90;;;;;;;23.01;100.00;99937.22;5114014;28;20252;-66
2023/09/16 09:45:16;;;;;;;6.20;5.63;;;;;;;23.10;100.00;99937.53;5112709;28;20271;-66
2023/09/16 09:47:43;;;;;;;7.40;5.20;;;;;;;23.22;100.00;99941.84;5113193;28;20237;-67
2023/09/16 09:50:13;;;;;;;6.23;5.63;;;;;;;23.37;100.00;99944.16;5113369;28;20207;-66
2023/09/16 09:52:45;;;;;;;7.43;5.80;;;;;;;23.53;100.00;99946.50;5108762;28;20226;-66
2023/09/16 09:55:12;;;;;;;4.97;4.57;;;;;;;23.71;100.00;99947.75;5110867;28;20268;-65
2023/09/16 09:57:41;;;;;;;5.80;5.13;;;;;;;23.85;100.00;99944.91;5113196;28;20617;-66
2023/09/16 10:00:08;;;;;;;5.77;5.37;;;;;;;24.01;100.00;99950.63;5113645;28;20259;-67
2023/09/16 10:02:36;;;;;;;5.53;5.13;;;;;;;24.12;100.00;99941.16;5112530;28;20205;-67
2023/09/16 10:05:05;;;;;;;5.67;5.00;;;;;;;24.18;100.00;99936.28;5113331;28;20203;-67
2023/09/16 10:07:32;;;;;;;4.10;3.90;;;;;;;24.16;100.00;99921.63;5113531;28;20239;-66
2023/09/16 10:09:59;;;;;;;7.47;6.23;;;;;;;24.34;100.00;99949.00;5112764;28;20210;-67
2023/09/16 10:12:26;;;;;;;5.87;5.07;;;;;;;24.35;100.00;99946.28;5111578;28;20199;-66
2023/09/16 10:14:55;;;;;;;5.57;5.10;;;;;;;24.28;100.00;99944.25;5113162;28;20222;-67
2023/09/16 10:17:22;;;;;;;4.70;4.30;;;;;;;24.20;100.00;99938.78;5113080;28;20198;-66
2023/09/16 10:19:50;;;;;;;4.93;4.57;;;;;;;24.22;100.00;99926.38;5110042;28;20230;-66
2023/09/16 10:22:17;;;;;;;11.87;6.20;;;;;;;24.25;100.00;99934.00;5110622;28;20203;-67
2023/09/16 10:24:44;;;;;;;5.27;4.87;;;;;;;24.31;100.00;99933.53;5112980;28;20229;-66
2023/09/16 10:27:18;;;;;;;6.27;5.77;;;;;;;24.39;100.00;99933.78;5112714;28;20207;-67
2023/09/16 10:29:47;;;;;;;5.60;5.20;;;;;;;24.49;100.00;99929.47;5112514;28;20705;-66
2023/09/16 10:32:16;;;;;;;5.07;4.53;;;;;;;24.68;100.00;99929.69;5112985;28;20272;-67
2023/09/16 10:34:46;;;;;;;5.07;4.70;;;;;;;24.73;100.00;99913.56;5112416;28;20677;-66
2023/09/16 10:37:17;;;;;;;5.27;4.70;;;;;;;24.89;100.00;99922.72;5113070;28;20701;-67
2023/09/16 10:39:47;;;;;;;4.97;4.67;;;;;;;25.01;100.00;99915.63;5112353;28;20274;-66
2023/09/16 10:42:16;;;;;;;5.33;4.57;;;;;;;25.12;100.00;99922.63;5112618;28;20294;-66
2023/09/16 10:44:43;;;;;;;4.73;4.40;;;;;;;25.19;100.00;99911.53;5113239;28;20214;-67
2023/09/16 10:47:10;;;;;;;5.27;4.77;;;;;;;25.28;100.00;99912.53;5112311;28;20226;-66
2023/09/16 10:49:39;;;;;;;4.23;3.93;;;;;;;25.31;100.00;99912.28;5111683;28;20218;-67
2023/09/16 10:52:10;;;;;;;4.00;3.70;;;;;;;25.12;98.03;99902.47;5112149;28;20203;-67
2023/09/16 10:54:43;;;;;;;4.30;4.00;;;;;;;24.80;98.10;99906.88;5110968;28;20198;-67
2023/09/16 10:57:17;;;;;;;7.43;4.77;;;;;;;24.69;98.99;99894.63;5112558;28;20630;-66
2023/09/16 10:59:48;;;;;;;4.83;4.43;;;;;;;24.81;100.00;99911.16;5112533;28;20281;-67
2023/09/16 11:02:25;;;;;;;5.10;4.33;;;;;;;24.68;100.00;99907.88;5112173;28;20263;-67
2023/09/16 11:04:54;;;;;;;4.87;4.50;;;;;;;24.61;100.00;99902.28;5112034;28;20198;-67
2023/09/16 11:07:21;;;;;;;8.70;4.90;;;;;;;24.63;100.00;99910.84;5112237;28;20203;-67
2023/09/16 11:09:50;;;;;;;5.00;4.50;;;;;;;24.66;100.00;99904.50;5112375;28;20666;-67
2023/09/16 11:12:18;;;;;;;6.77;5.00;;;;;;;24.77;100.00;99889.59;5112375;28;20202;-67
2023/09/16 11:14:45;;;;;;;4.60;4.30;;;;;;;24.91;100.00;99886.69;5112188;28;20198;-67
2023/09/16 11:17:14;;;;;;;5.23;4.73;;;;;;;24.79;100.00;99890.28;5112301;28;20202;-67
2023/09/16 11:19:41;;;;;;;4.90;4.47;;;;;;;24.74;100.00;99892.47;5112050;28;20293;-68
2023/09/16 11:22:10;;;;;;;4.97;4.77;;;;;;;24.89;100.00;99879.91;5112027;28;20555;-68
2023/09/16 11:24:37;;;;;;;4.27;4.07;;;;;;;24.87;99.35;99885.31;5111882;28;20313;-67
2023/09/16 11:27:06;;;;;;;6.70;4.47;;;;;;;24.81;98.59;99875.28;5111893;28;20198;-67